createdAt,value
2018-09-05T00:00:11.729Z,8.70
2018-09-05T00:02:41.118Z,6.33
2018-09-05T00:05:10.632Z,7.90
2018-09-05T00:07:39.932Z,8.77
2018-09-05T00:10:09.173Z,11.37
2018-09-05T00:12:38.192Z,10.67
2018-09-05T00:15:07.882Z,6.67
2018-09-05T00:17:37.279Z,8.30
2018-09-05T00:20:06.661Z,5.67
2018-09-05T00:22:35.816Z,10.00
2018-09-05T00:25:05.151Z,6.27
2018-09-05T00:27:34.351Z,7.60
2018-09-05T00:30:03.885Z,5.10
2018-09-05T00:32:33.140Z,7.53
2018-09-05T00:35:02.511Z,8.23
2018-09-05T00:37:31.624Z,6.67
2018-09-05T00:40:00.806Z,8.73
2018-09-05T00:42:30.051Z,8.60
2018-09-05T00:44:59.273Z,7.13
2018-09-05T00:47:28.494Z,8.00
2018-09-05T00:50:00.607Z,8.03
2018-09-05T00:52:30.561Z,7.83
2018-09-05T00:54:59.728Z,10.27
2018-09-05T00:57:28.953Z,8.10
2018-09-05T00:59:58.102Z,6.70
2018-09-05T01:02:27.500Z,8.10
2018-09-05T01:04:57.272Z,7.83
2018-09-05T01:07:27.764Z,9.83
2018-09-05T01:09:56.940Z,6.20
2018-09-05T01:12:26.641Z,6.53
2018-09-05T01:14:56.149Z,6.23
2018-09-05T01:17:25.493Z,9.30
2018-09-05T01:19:54.728Z,7.93
2018-09-05T01:22:23.953Z,6.80
2018-09-05T01:24:52.971Z,9.27
2018-09-05T01:27:22.257Z,11.20
2018-09-05T01:29:51.583Z,6.37
2018-09-05T01:32:20.733Z,7.20
2018-09-05T01:34:50.197Z,7.17
2018-09-05T01:37:19.540Z,6.67
2018-09-05T01:39:48.620Z,10.53
2018-09-05T01:42:17.905Z,7.17
2018-09-05T01:44:47.114Z,8.77
2018-09-05T01:47:16.461Z,6.60
2018-09-05T01:49:45.763Z,5.93
2018-09-05T01:52:15.083Z,6.37
2018-09-05T01:54:44.371Z,7.40
2018-09-05T01:57:13.561Z,8.17
2018-09-05T01:59:42.885Z,6.43
2018-09-05T02:02:12.263Z,6.00
2018-09-05T02:04:41.400Z,7.70
2018-09-05T02:07:10.962Z,6.43
2018-09-05T02:09:40.148Z,7.73
2018-09-05T02:12:09.499Z,7.10
2018-09-05T02:14:38.698Z,5.67
2018-09-05T02:17:07.855Z,6.83
2018-09-05T02:19:37.127Z,5.03
2018-09-05T02:22:06.407Z,8.33
2018-09-05T02:24:35.633Z,6.57
2018-09-05T02:27:05.235Z,5.83
2018-09-05T02:29:34.721Z,9.50
2018-09-05T02:32:04.203Z,6.50
2018-09-05T02:34:33.344Z,6.93
2018-09-05T02:37:02.551Z,5.80
2018-09-05T02:39:31.816Z,5.97
2018-09-05T02:42:00.949Z,6.53
2018-09-05T02:44:30.197Z,7.63
2018-09-05T02:46:59.587Z,5.40
2018-09-05T02:49:28.770Z,7.23
2018-09-05T02:51:57.992Z,8.37
2018-09-05T02:54:27.227Z,9.80
2018-09-05T02:56:56.332Z,8.70
2018-09-05T02:59:25.619Z,6.80
2018-09-05T03:01:54.745Z,7.77
2018-09-05T03:04:24.018Z,5.57
2018-09-05T03:06:53.326Z,6.80
2018-09-05T03:09:22.773Z,6.27
2018-09-05T03:11:51.799Z,6.97
2018-09-05T03:14:20.992Z,7.87
2018-09-05T03:16:50.195Z,9.27
2018-09-05T03:19:19.395Z,7.37
2018-09-05T03:21:48.818Z,11.90
2018-09-05T03:24:18.348Z,7.70
2018-09-05T03:26:47.491Z,8.83
2018-09-05T03:29:16.812Z,7.17
2018-09-05T03:31:45.922Z,9.67
2018-09-05T03:34:15.453Z,9.87
2018-09-05T03:36:44.650Z,7.07
2018-09-05T03:39:13.964Z,8.40
2018-09-05T03:41:42.907Z,8.80
2018-09-05T03:44:12.207Z,8.77
2018-09-05T03:46:41.374Z,11.70
2018-09-05T03:49:10.528Z,9.80
2018-09-05T03:51:39.712Z,12.20
2018-09-05T03:54:09.389Z,11.30
2018-09-05T03:56:38.480Z,9.27
2018-09-05T03:59:07.858Z,9.50
2018-09-05T04:01:36.987Z,7.87
2018-09-05T04:04:06.352Z,8.97
2018-09-05T04:06:35.307Z,9.40
2018-09-05T04:09:06.409Z,9.20
2018-09-05T04:11:36.423Z,10.00
2018-09-05T04:14:05.802Z,7.43
2018-09-05T04:19:28.867Z,9.97
2018-09-05T04:21:58.016Z,10.63
2018-09-05T04:24:27.363Z,10.43
2018-09-05T04:26:56.468Z,8.17
2018-09-05T04:29:25.654Z,8.67
2018-09-05T04:31:54.953Z,6.50
2018-09-05T04:34:24.236Z,7.03
2018-09-05T04:36:53.455Z,11.60
2018-09-05T04:39:24.014Z,7.27
2018-09-05T04:41:53.337Z,10.37
2018-09-05T04:44:22.216Z,10.77
2018-09-05T04:46:51.159Z,6.70
2018-09-05T04:49:20.373Z,9.00
2018-09-05T04:51:54.859Z,9.27
2018-09-05T04:54:23.837Z,11.33
2018-09-05T04:56:53.236Z,10.63
2018-09-05T04:59:23.428Z,7.80
2018-09-05T05:01:52.376Z,14.67
2018-09-05T05:04:22.499Z,14.37
2018-09-05T05:06:52.883Z,11.97
2018-09-05T05:09:22.402Z,13.13
2018-09-05T05:11:53.503Z,9.83
2018-09-05T05:14:22.640Z,12.03
2018-09-05T05:16:52.341Z,10.33
2018-09-05T05:19:21.532Z,12.53
2018-09-05T05:21:50.949Z,9.50
2018-09-05T05:24:19.798Z,10.80
2018-09-05T05:26:48.674Z,10.50
2018-09-05T05:29:17.878Z,9.07
2018-09-05T05:31:47.152Z,8.73
2018-09-05T05:34:17.202Z,10.93
2018-09-05T05:36:46.539Z,8.90
2018-09-05T05:39:15.464Z,9.77
2018-09-05T05:41:44.455Z,9.57
2018-09-05T05:44:13.518Z,8.57
2018-09-05T05:46:42.560Z,7.40
2018-09-05T05:49:11.603Z,9.40
2018-09-05T05:51:40.685Z,8.57
2018-09-05T05:54:09.691Z,8.07
2018-09-05T05:56:38.807Z,9.57
2018-09-05T05:59:07.671Z,10.23
2018-09-05T06:01:36.528Z,11.80
2018-09-05T06:04:05.513Z,8.47
2018-09-05T06:06:34.460Z,11.13
2018-09-05T06:09:03.507Z,9.97
2018-09-05T06:11:32.444Z,8.43
2018-09-05T06:14:01.827Z,8.87
2018-09-05T06:16:30.685Z,9.57
2018-09-05T06:18:59.860Z,9.47
2018-09-05T06:21:29.081Z,11.63
2018-09-05T06:23:58.639Z,10.70
2018-09-05T06:26:27.597Z,10.73
2018-09-05T06:28:56.697Z,12.67
2018-09-05T06:31:25.898Z,11.37
2018-09-05T06:33:55.006Z,11.37
2018-09-05T06:36:24.409Z,8.87
2018-09-05T06:38:53.343Z,12.57
2018-09-05T06:41:22.985Z,11.03
2018-09-05T06:43:52.156Z,12.13
2018-09-05T06:46:21.417Z,11.13
2018-09-05T06:48:50.389Z,9.17
2018-09-05T06:51:19.660Z,14.53
2018-09-05T06:53:48.921Z,11.30
2018-09-05T06:56:18.313Z,14.30
2018-09-05T06:58:47.700Z,13.00
2018-09-05T07:01:16.901Z,16.77
2018-09-05T07:03:46.317Z,16.23
2018-09-05T07:06:15.548Z,10.63
2018-09-05T07:08:44.863Z,19.23
2018-09-05T07:11:13.947Z,13.93
2018-09-05T07:13:43.089Z,13.60
2018-09-05T07:16:13.478Z,9.87
2018-09-05T07:18:42.441Z,11.97
2018-09-05T07:21:11.452Z,12.77
2018-09-05T07:23:40.347Z,10.97
2018-09-05T07:26:09.643Z,12.83
2018-09-05T07:28:38.949Z,13.50
2018-09-05T07:31:08.314Z,12.00
2018-09-05T07:33:37.654Z,11.43
2018-09-05T07:36:06.982Z,9.40
2018-09-05T07:38:36.246Z,9.83
2018-09-05T07:41:06.415Z,12.50
2018-09-05T07:43:35.441Z,11.53
2018-09-05T07:46:04.757Z,11.37
2018-09-05T07:48:34.176Z,11.57
2018-09-05T07:51:03.372Z,10.27
2018-09-05T07:53:32.583Z,13.40
2018-09-05T07:56:01.767Z,9.13
2018-09-05T07:58:31.027Z,12.47
2018-09-05T08:01:00.272Z,11.60
2018-09-05T08:03:29.735Z,11.50
2018-09-05T08:05:59.058Z,9.13
2018-09-05T08:08:27.992Z,12.77
2018-09-05T08:10:57.343Z,13.57
2018-09-05T08:13:26.663Z,8.00
2018-09-05T08:15:55.757Z,11.53
2018-09-05T08:18:25.261Z,9.57
2018-09-05T08:20:54.710Z,7.83
2018-09-05T08:23:23.890Z,9.63
2018-09-05T08:25:53.202Z,11.40
2018-09-05T08:28:22.377Z,8.57
2018-09-05T08:30:51.629Z,9.83
2018-09-05T08:33:21.639Z,12.80
2018-09-05T08:35:51.224Z,10.83
2018-09-05T08:38:20.442Z,10.00
2018-09-05T08:40:50.838Z,8.43
2018-09-05T08:43:20.407Z,10.00
2018-09-05T08:45:49.644Z,9.63
2018-09-05T08:48:18.993Z,10.23
2018-09-05T08:50:48.355Z,8.47
2018-09-05T08:53:17.596Z,9.87
2018-09-05T08:55:46.959Z,9.17
2018-09-05T08:58:16.197Z,6.90
2018-09-05T09:00:45.447Z,8.20
2018-09-05T09:03:14.365Z,8.37
2018-09-05T09:05:43.230Z,8.07
2018-09-05T09:08:12.560Z,8.77
2018-09-05T09:10:41.639Z,7.67
2018-09-05T09:13:10.851Z,7.77
2018-09-05T09:15:39.783Z,8.00
2018-09-05T09:18:09.151Z,7.10
2018-09-05T09:20:38.990Z,8.50
2018-09-05T09:23:08.595Z,9.03
2018-09-05T09:25:37.783Z,8.77
2018-09-05T09:28:06.988Z,9.63
2018-09-05T09:30:35.916Z,7.90
2018-09-05T09:33:05.282Z,6.83
2018-09-05T09:35:34.485Z,6.67
2018-09-05T09:38:03.950Z,7.03
2018-09-05T09:40:33.404Z,8.90
2018-09-05T09:43:02.417Z,8.13
2018-09-05T09:45:31.791Z,16.77
2018-09-05T09:48:00.916Z,8.57
2018-09-05T09:50:30.333Z,7.83
2018-09-05T09:52:59.623Z,7.67
2018-09-05T09:55:29.109Z,9.17
2018-09-05T09:57:58.793Z,8.63
2018-09-05T10:00:33.168Z,6.67
2018-09-05T10:03:07.761Z,8.13
2018-09-05T10:05:42.010Z,6.37
2018-09-05T10:08:17.274Z,8.40
2018-09-05T10:11:24.919Z,9.50
2018-09-05T10:13:59.224Z,7.40
2018-09-05T10:16:33.400Z,7.90
2018-09-05T10:19:06.642Z,7.20
2018-09-05T10:24:28.549Z,8.83
2018-09-05T10:26:57.835Z,6.87
2018-09-05T10:29:27.444Z,10.10
2018-09-05T10:31:56.794Z,7.90
2018-09-05T10:34:26.060Z,10.00
2018-09-05T10:36:55.277Z,12.40
2018-09-05T10:39:24.798Z,10.73
2018-09-05T10:41:54.124Z,8.50
2018-09-05T10:44:23.296Z,10.30
2018-09-05T10:46:52.854Z,7.27
2018-09-05T10:49:22.110Z,7.70
2018-09-05T10:51:56.309Z,9.93
2018-09-05T10:54:25.864Z,9.57
2018-09-05T10:56:55.194Z,8.87
2018-09-05T10:59:24.753Z,8.60
2018-09-05T11:01:54.517Z,8.97
2018-09-05T11:04:24.873Z,8.40
2018-09-05T11:06:54.560Z,7.87
2018-09-05T11:09:24.130Z,8.50
2018-09-05T11:11:53.253Z,7.17
2018-09-05T11:14:23.108Z,9.13
2018-09-05T11:16:52.766Z,8.73
2018-09-05T11:19:22.060Z,8.73
2018-09-05T11:21:51.819Z,8.17
2018-09-05T11:24:21.500Z,11.77
2018-09-05T11:26:50.802Z,6.20
2018-09-05T11:29:20.315Z,8.67
2018-09-05T11:31:49.644Z,6.67
2018-09-05T11:34:18.840Z,9.33
2018-09-05T11:36:48.465Z,8.37
2018-09-05T11:39:17.584Z,9.23
2018-09-05T11:41:46.931Z,8.40
2018-09-05T11:44:16.263Z,6.60
2018-09-05T11:46:45.599Z,8.20
2018-09-05T11:49:14.897Z,5.77
2018-09-05T11:51:44.301Z,6.73
2018-09-05T11:54:13.562Z,6.03
2018-09-05T12:02:28.563Z,8.43
2018-09-05T12:04:58.229Z,8.43
2018-09-05T12:10:20.491Z,7.67
2018-09-05T12:12:49.813Z,10.90
2018-09-05T12:15:19.085Z,7.07
2018-09-05T12:17:48.898Z,7.07
2018-09-05T12:20:18.421Z,6.07
2018-09-05T12:22:47.742Z,6.43
2018-09-05T12:25:17.452Z,6.10
2018-09-05T12:27:46.780Z,7.00
2018-09-05T12:30:16.053Z,5.87
2018-09-05T12:32:45.479Z,8.37
2018-09-05T12:35:14.640Z,5.83
2018-09-05T12:37:43.977Z,5.83
2018-09-05T12:40:13.347Z,4.90
2018-09-05T12:48:27.731Z,4.80
2018-09-05T12:50:57.213Z,5.10
2018-09-05T12:53:26.654Z,7.43
2018-09-05T12:55:56.188Z,6.13
2018-09-05T12:58:25.454Z,5.73
2018-09-05T13:00:54.894Z,4.73
2018-09-05T13:03:24.396Z,5.37
2018-09-05T13:05:53.730Z,6.30
2018-09-05T13:08:23.274Z,7.27
2018-09-05T13:10:52.766Z,4.90
2018-09-05T13:13:22.129Z,6.50
2018-09-05T13:15:51.425Z,4.87
2018-09-05T13:18:21.783Z,4.50
2018-09-05T13:20:50.933Z,6.13
2018-09-05T13:23:53.316Z,5.50
2018-09-05T13:26:22.723Z,5.40
2018-09-05T13:28:52.077Z,4.07
2018-09-05T13:31:21.723Z,8.93
2018-09-05T13:33:51.051Z,5.43
2018-09-05T13:36:20.400Z,4.20
2018-09-05T13:38:49.751Z,5.43
2018-09-05T13:41:19.189Z,5.00
2018-09-05T13:43:48.402Z,5.13
2018-09-05T13:46:17.831Z,4.70
2018-09-05T13:48:47.234Z,5.17
2018-09-05T13:51:16.631Z,5.10
2018-09-05T13:53:46.514Z,7.63
2018-09-05T13:56:15.760Z,7.23
2018-09-05T13:58:44.924Z,4.53
2018-09-05T14:01:14.537Z,5.37
2018-09-05T14:03:43.476Z,4.87
2018-09-05T14:06:12.859Z,8.03
2018-09-05T14:08:42.342Z,5.03
2018-09-05T14:11:11.209Z,6.03
2018-09-05T14:13:40.372Z,7.50
2018-09-05T14:16:09.892Z,7.53
2018-09-05T14:18:39.087Z,6.83
2018-09-05T14:21:08.356Z,6.60
2018-09-05T14:23:37.621Z,6.60
2018-09-05T14:26:06.611Z,5.80
2018-09-05T14:28:35.652Z,6.97
2018-09-05T14:31:05.760Z,7.97
2018-09-05T14:33:35.277Z,7.53
2018-09-05T14:36:04.596Z,7.07
2018-09-05T14:38:34.144Z,7.37
2018-09-05T14:41:03.596Z,4.63
2018-09-05T14:43:33.057Z,5.87
2018-09-05T14:46:02.489Z,5.23
2018-09-05T14:48:31.638Z,5.53
2018-09-05T14:51:00.919Z,5.83
2018-09-05T14:53:30.594Z,6.73
2018-09-05T14:56:00.573Z,5.93
2018-09-05T14:58:30.041Z,8.60
2018-09-05T15:00:59.698Z,7.30
2018-09-05T15:03:29.089Z,7.67
2018-09-05T15:05:58.491Z,5.60
2018-09-05T15:08:27.643Z,6.03
2018-09-05T15:10:56.838Z,6.77
2018-09-05T15:13:26.285Z,5.53
2018-09-05T15:15:55.521Z,5.30
2018-09-05T15:18:24.727Z,5.43
2018-09-05T15:20:54.205Z,8.40
2018-09-05T15:23:23.905Z,6.27
2018-09-05T15:25:53.323Z,6.67
2018-09-05T15:28:24.251Z,6.40
2018-09-05T15:30:53.548Z,7.20
2018-09-05T15:33:23.541Z,8.47
2018-09-05T15:35:53.437Z,8.23
2018-09-05T15:38:23.426Z,8.13
2018-09-05T15:40:52.807Z,6.60
2018-09-05T15:43:22.685Z,7.10
2018-09-05T15:45:52.828Z,7.80
2018-09-05T15:48:22.593Z,8.33
2018-09-05T15:50:51.919Z,7.20
2018-09-05T15:53:21.388Z,6.63
2018-09-05T15:55:50.944Z,8.03
2018-09-05T15:58:21.681Z,5.53
2018-09-05T16:00:51.111Z,5.50
2018-09-05T16:03:21.993Z,5.77
2018-09-05T16:05:51.468Z,6.27
2018-09-05T16:08:21.066Z,6.80
2018-09-05T16:10:50.571Z,6.43
2018-09-05T16:13:20.169Z,8.33
2018-09-05T16:15:49.339Z,7.30
2018-09-05T16:18:18.819Z,9.00
2018-09-05T16:20:48.200Z,7.43
2018-09-05T16:23:18.330Z,5.97
2018-09-05T16:25:48.631Z,6.53
2018-09-05T16:28:17.920Z,7.10
2018-09-05T16:30:47.254Z,6.50
2018-09-05T16:33:17.007Z,8.40
2018-09-05T16:35:46.388Z,6.10
2018-09-05T16:38:15.825Z,9.27
2018-09-05T16:40:45.229Z,5.17
2018-09-05T16:43:14.719Z,6.83
2018-09-05T16:45:43.916Z,8.90
2018-09-05T16:48:13.142Z,6.10
2018-09-05T16:50:42.525Z,7.70
2018-09-05T16:53:11.677Z,6.60
2018-09-05T16:55:41.399Z,5.57
2018-09-05T16:58:12.604Z,7.87
2018-09-05T17:00:42.280Z,7.10
2018-09-05T17:03:12.083Z,7.13
2018-09-05T17:05:41.473Z,7.47
2018-09-05T17:08:11.380Z,6.60
2018-09-05T17:10:40.633Z,6.30
2018-09-05T17:13:09.784Z,6.10
2018-09-05T17:15:39.279Z,6.63
2018-09-05T17:18:09.049Z,5.93
2018-09-05T17:20:38.554Z,7.13
2018-09-05T17:23:07.905Z,5.53
2018-09-05T17:25:37.409Z,7.60
2018-09-05T17:28:06.784Z,5.90
2018-09-05T17:30:36.190Z,13.73
2018-09-05T17:33:05.785Z,5.93
2018-09-05T17:35:34.793Z,7.30
2018-09-05T17:38:05.088Z,6.00
2018-09-05T17:40:34.056Z,7.57
2018-09-05T17:43:03.119Z,5.77
2018-09-05T17:45:32.438Z,7.80
2018-09-05T17:48:01.378Z,6.27
2018-09-05T17:50:30.776Z,8.37
2018-09-05T17:52:59.940Z,7.60
2018-09-05T17:55:28.941Z,7.50
2018-09-05T17:57:58.168Z,8.37
2018-09-05T18:00:27.519Z,8.93
2018-09-05T18:02:56.645Z,8.27
2018-09-05T18:05:25.941Z,7.27
2018-09-05T18:07:55.177Z,8.53
2018-09-05T18:10:24.316Z,8.57
2018-09-05T18:12:53.572Z,8.10
2018-09-05T18:15:23.902Z,9.67
2018-09-05T18:17:53.310Z,7.63
2018-09-05T18:20:22.769Z,7.67
2018-09-05T18:22:52.172Z,9.17
2018-09-05T18:25:21.527Z,8.43
2018-09-05T18:27:50.947Z,8.07
2018-09-05T18:30:21.020Z,11.20
2018-09-05T18:32:50.312Z,7.40
2018-09-05T18:35:20.121Z,10.57
2018-09-05T18:37:49.674Z,11.23
2018-09-05T18:40:19.767Z,9.83
2018-09-05T18:42:49.347Z,19.13
2018-09-05T18:45:20.001Z,9.47
2018-09-05T18:47:49.478Z,10.90
2018-09-05T18:50:19.201Z,11.00
2018-09-05T18:52:48.689Z,12.73
2018-09-05T18:55:18.065Z,9.73
2018-09-05T18:57:47.415Z,12.83
2018-09-05T19:00:16.714Z,11.57
2018-09-05T19:02:46.059Z,10.90
2018-09-05T19:05:15.861Z,9.87
2018-09-05T19:07:45.371Z,9.07
2018-09-05T19:10:14.744Z,12.33
2018-09-05T19:12:43.961Z,8.73
2018-09-05T19:15:12.885Z,9.23
2018-09-05T19:17:42.100Z,13.00
2018-09-05T19:20:12.044Z,11.40
2018-09-05T19:22:41.557Z,13.77
2018-09-05T19:25:10.904Z,12.33
2018-09-05T19:27:40.173Z,12.70
2018-09-05T19:30:09.341Z,10.27
2018-09-05T19:33:41.388Z,9.10
2018-09-05T19:36:10.623Z,10.13
2018-09-05T19:38:40.189Z,11.50
2018-09-05T19:41:09.937Z,9.07
2018-09-05T19:43:40.190Z,11.57
2018-09-05T19:46:09.351Z,11.57
2018-09-05T19:48:38.676Z,10.43
2018-09-05T19:51:07.903Z,12.43
2018-09-05T19:53:36.970Z,12.20
2018-09-05T19:56:06.892Z,13.93
2018-09-05T19:58:35.885Z,15.40
2018-09-05T20:01:05.301Z,11.37
2018-09-05T20:03:34.779Z,9.70
2018-09-05T20:06:04.058Z,13.77
2018-09-05T20:08:33.146Z,11.43
2018-09-05T20:11:03.452Z,9.87
2018-09-05T20:13:32.718Z,13.13
2018-09-05T20:16:01.886Z,12.57
2018-09-05T20:18:31.102Z,9.63
2018-09-05T20:21:00.680Z,12.00
2018-09-05T20:23:29.889Z,9.90
2018-09-05T20:26:02.436Z,9.93
2018-09-05T20:28:31.561Z,10.27
2018-09-05T20:31:00.875Z,9.30
2018-09-05T20:33:30.700Z,8.47
2018-09-05T20:36:06.668Z,9.10
2018-09-05T20:38:36.147Z,8.83
2018-09-05T20:41:05.392Z,9.43
2018-09-05T20:43:34.755Z,11.10
2018-09-05T20:46:04.357Z,9.67
2018-09-05T20:48:34.233Z,8.43
2018-09-05T20:51:03.899Z,11.53
2018-09-05T20:53:33.447Z,8.50
2018-09-05T20:56:02.938Z,8.90
2018-09-05T20:58:32.260Z,11.30
2018-09-05T21:01:01.693Z,10.20
2018-09-05T21:03:31.045Z,11.53
2018-09-05T21:06:00.154Z,8.20
2018-09-05T21:08:29.629Z,13.30
2018-09-05T21:10:59.612Z,10.23
2018-09-05T21:13:28.599Z,8.77
2018-09-05T21:15:58.136Z,9.80
2018-09-05T21:18:27.614Z,10.50
2018-09-05T21:20:59.291Z,9.90
2018-09-05T21:23:30.807Z,9.83
2018-09-05T21:26:00.370Z,10.73
2018-09-05T21:28:29.423Z,9.47
2018-09-05T21:30:58.958Z,9.80
2018-09-05T21:33:28.037Z,8.77
2018-09-05T21:35:56.998Z,9.70
2018-09-05T21:38:26.486Z,10.43
2018-09-05T21:40:55.545Z,9.13
2018-09-05T21:43:24.605Z,13.53
2018-09-05T21:45:53.965Z,9.43
2018-09-05T21:48:23.596Z,8.77
2018-09-05T21:50:53.014Z,10.30
2018-09-05T21:53:22.224Z,10.30
2018-09-05T21:55:51.986Z,9.90
2018-09-05T21:58:21.407Z,10.10
2018-09-05T22:00:50.871Z,13.33
2018-09-05T22:03:19.949Z,10.40
2018-09-05T22:05:48.924Z,11.77
2018-09-05T22:08:18.158Z,9.47
2018-09-05T22:10:47.285Z,11.30
2018-09-05T22:13:16.225Z,9.70
2018-09-05T22:15:48.544Z,11.47
2018-09-05T22:18:18.563Z,13.30
2018-09-05T22:20:47.998Z,9.83
2018-09-05T22:23:17.023Z,9.90
2018-09-05T22:25:46.329Z,9.43
2018-09-05T22:28:15.762Z,11.03
2018-09-05T22:30:45.145Z,9.93
2018-09-05T22:33:14.179Z,14.20
2018-09-05T22:35:43.607Z,11.03
2018-09-05T22:38:12.739Z,11.07
2018-09-05T22:40:47.068Z,12.97
2018-09-05T22:43:27.235Z,12.70
2018-09-05T22:46:07.389Z,11.70
2018-09-05T22:48:50.031Z,9.93
2018-09-05T22:53:46.787Z,11.77
2018-09-05T22:57:37.627Z,13.07
2018-09-05T23:00:21.782Z,9.90
2018-09-05T23:03:01.927Z,11.17
2018-09-05T23:07:46.583Z,12.47
2018-09-05T23:12:32.531Z,9.50
2018-09-05T23:15:12.493Z,10.40
2018-09-05T23:20:00.562Z,9.23
2018-09-05T23:22:40.337Z,13.40
2018-09-05T23:25:09.390Z,9.87
2018-09-05T23:27:38.429Z,10.33
2018-09-05T23:30:07.669Z,11.67
2018-09-05T23:32:37.390Z,10.20
2018-09-05T23:35:06.739Z,9.97
2018-09-05T23:37:35.889Z,9.93
2018-09-05T23:40:05.132Z,10.87
2018-09-05T23:42:34.531Z,12.13
2018-09-05T23:45:03.998Z,10.70
2018-09-05T23:47:33.445Z,9.37
2018-09-05T23:50:02.549Z,9.43
2018-09-05T23:52:31.638Z,11.37
2018-09-05T23:55:00.998Z,10.27
2018-09-05T23:57:30.121Z,11.70
2018-09-05T23:59:59.436Z,9.83
